Time;durP1;ratioP1;P1;durP2;ratioP2;P2;SDS_P1;SDS_P2;PMS_P1;PMS_P2;Temp;Humidity;BMP_temperature;BMP_pressure;BME280_temperature;BME280_humidity;BME280_pressure;Samples;Min_cycle;Max_cycle;Signal;HPM_P1;HPM_P2
2023/11/01 00:02:17;;;;;;;19.50;9.70;;;;;;;22.69;71.22;99905.56;109950;1284;21940;-75
2023/11/01 00:04:43;;;;;;;16.30;8.70;;;;;;;22.68;71.16;99902.98;109964;1280;21833;-74
2023/11/01 00:07:08;;;;;;;20.40;9.20;;;;;;;22.69;71.10;99908.47;109966;1286;22276;-74
2023/11/01 00:09:34;;;;;;;15.80;8.60;;;;;;;22.69;71.06;99910.95;109952;1286;21942;-73
2023/11/01 00:11:59;;;;;;;14.60;8.90;;;;;;;22.68;71.00;99906.34;109946;1286;21944;-72
2023/11/01 00:14:25;;;;;;;16.60;8.60;;;;;;;22.68;71.19;99906.14;109960;1280;22401;-60
2023/11/01 00:16:51;;;;;;;22.10;10.30;;;;;;;22.70;71.18;99904.64;109970;1274;22023;-74
2023/11/01 00:19:17;;;;;;;17.50;8.60;;;;;;;22.71;71.34;99903.83;109841;1286;21942;-61
2023/11/01 00:21:42;;;;;;;16.40;9.10;;;;;;;22.72;71.21;99901.59;109958;1286;22016;-73
2023/11/01 00:24:08;;;;;;;19.40;9.30;;;;;;;22.74;71.29;99906.48;109972;1286;21940;-74
2023/11/01 00:26:34;;;;;;;17.30;9.40;;;;;;;22.74;71.43;99906.64;109972;1286;21880;-62
2023/11/01 00:28:59;;;;;;;15.60;8.30;;;;;;;22.73;71.29;99908.98;109971;1280;21840;-75
2023/11/01 00:31:25;;;;;;;19.40;9.60;;;;;;;22.74;71.23;99915.55;109933;1286;21950;-71
2023/11/01 00:33:51;;;;;;;19.10;10.00;;;;;;;22.75;71.35;99912.48;109926;1281;22278;-73
2023/11/01 00:36:17;;;;;;;22.20;10.20;;;;;;;22.75;71.70;99910.88;109964;1286;21939;-60
2023/11/01 00:38:42;;;;;;;22.40;10.20;;;;;;;22.75;71.76;99910.48;109951;1279;22004;-60
2023/11/01 00:41:08;;;;;;;19.20;8.70;;;;;;;22.76;71.70;99907.08;109952;1284;21949;-60
2023/11/01 00:43:33;;;;;;;18.90;9.80;;;;;;;22.75;71.67;99902.79;109971;1277;21990;-74
2023/11/01 00:45:59;;;;;;;18.60;9.40;;;;;;;22.75;71.60;99900.84;109860;1286;21934;-60
2023/11/01 00:48:25;;;;;;;17.70;10.20;;;;;;;22.76;71.63;99901.54;109941;1281;21996;-75
2023/11/01 00:50:51;;;;;;;14.80;9.40;;;;;;;22.76;71.60;99898.48;109858;1286;22238;-74
2023/11/01 00:53:16;;;;;;;15.70;9.40;;;;;;;22.72;72.08;99897.88;109966;1280;21865;-60
2023/11/01 00:55:42;;;;;;;17.80;10.30;;;;;;;22.65;72.57;99898.86;109950;1286;21950;-75
2023/11/01 00:58:07;;;;;;;25.30;10.80;;;;;;;22.62;72.89;99894.96;109943;1286;21924;-72
2023/11/01 01:00:33;;;;;;;19.20;10.20;;;;;;;22.67;72.74;99886.41;109958;1286;22076;-60
2023/11/01 01:02:58;;;;;;;19.50;9.80;;;;;;;22.74;72.18;99875.19;109955;1282;21851;-72
2023/11/01 01:05:24;;;;;;;18.10;9.50;;;;;;;22.75;72.06;99867.91;109917;1286;21934;-75
2023/11/01 01:07:49;;;;;;;13.70;9.00;;;;;;;22.73;72.11;99859.85;109944;1280;21976;-73
2023/11/01 01:10:16;;;;;;;15.20;9.60;;;;;;;22.71;72.11;99861.42;109947;1284;21976;-60
2023/11/01 01:12:41;;;;;;;19.60;10.00;;;;;;;22.68;71.98;99860.22;109948;1276;21913;-73
2023/11/01 01:15:07;;;;;;;19.10;9.60;;;;;;;22.64;71.98;99855.34;109972;1273;21944;-59
2023/11/01 01:17:33;;;;;;;18.90;10.30;;;;;;;22.61;72.43;99859.66;109928;1286;22442;-72
2023/11/01 01:19:59;;;;;;;18.30;10.90;;;;;;;22.58;72.38;99865.35;109961;1284;22189;-60
2023/11/01 01:22:24;;;;;;;18.60;10.40;;;;;;;22.57;72.81;99870.44;109955;1286;21949;-60
2023/11/01 01:24:50;;;;;;;21.40;10.70;;;;;;;22.53;73.25;99871.77;109947;1286;21993;-60
2023/11/01 01:27:15;;;;;;;20.80;11.20;;;;;;;22.46;74.12;99873.92;109966;1276;21917;-72
2023/11/01 01:29:41;;;;;;;16.70;10.80;;;;;;;22.45;74.29;99869.37;109909;1286;22444;-60
2023/11/01 01:32:07;;;;;;;19.60;11.50;;;;;;;22.44;74.35;99862.79;109950;1286;21910;-60
2023/11/01 01:34:32;;;;;;;21.70;11.00;;;;;;;22.45;74.19;99854.71;109961;1280;21988;-71
2023/11/01 01:36:58;;;;;;;23.30;11.90;;;;;;;22.45;74.08;99848.44;109965;1286;21915;-72
2023/11/01 01:39:23;;;;;;;19.90;11.10;;;;;;;22.45;74.22;99846.30;109964;1284;22267;-60
2023/11/01 01:41:49;;;;;;;21.80;11.60;;;;;;;22.40;74.09;99847.99;109946;1274;21935;-70
2023/11/01 01:44:14;;;;;;;17.40;10.10;;;;;;;22.37;74.05;99845.34;109962;1286;21909;-72
2023/11/01 01:46:40;;;;;;;22.40;12.00;;;;;;;22.36;74.30;99845.80;109946;1286;21930;-71
2023/11/01 01:49:05;;;;;;;30.40;12.50;;;;;;;22.34;75.08;99842.88;109848;1286;21917;-60
2023/11/01 01:51:31;;;;;;;24.60;11.50;;;;;;;22.35;74.99;99843.54;109906;1283;22262;-72
2023/11/01 01:53:57;;;;;;;16.80;11.60;;;;;;;22.38;75.20;99846.77;109834;1286;21933;-72
2023/11/01 01:56:22;;;;;;;23.40;12.50;;;;;;;22.40;75.57;99840.50;109843;1286;22009;-72
2023/11/01 01:58:50;;;;;;;21.60;12.20;;;;;;;22.45;75.49;99837.89;109876;1277;22365;-59
2023/11/01 02:01:17;;;;;;;26.30;11.80;;;;;;;22.51;75.43;99832.10;109924;1280;21866;-66
2023/11/01 02:03:42;;;;;;;20.90;11.60;;;;;;;22.54;75.53;99824.38;109957;1284;21921;-60
2023/11/01 02:06:08;;;;;;;23.10;12.90;;;;;;;22.55;75.50;99819.45;109968;1286;21889;-60
2023/11/01 02:08:33;;;;;;;24.00;14.20;;;;;;;22.55;75.51;99806.55;109963;1280;21979;-60
2023/11/01 02:10:59;;;;;;;22.70;11.30;;;;;;;22.54;75.72;99798.94;109956;1281;21933;-72
2023/11/01 02:13:24;;;;;;;22.10;12.20;;;;;;;22.55;75.29;99802.67;109959;1276;21925;-72
2023/11/01 02:15:50;;;;;;;22.70;13.00;;;;;;;22.54;75.15;99800.92;109963;1277;21980;-72
2023/11/01 02:18:16;;;;;;;18.70;12.10;;;;;;;22.55;75.13;99806.98;109979;1279;21932;-60
2023/11/01 02:20:44;;;;;;;25.50;13.10;;;;;;;22.54;75.19;99809.48;109965;1286;21958;-60
2023/11/01 02:23:11;;;;;;;20.00;12.80;;;;;;;22.55;75.37;99799.59;109962;1280;21953;-60
2023/11/01 02:25:37;;;;;;;19.60;13.00;;;;;;;22.55;75.46;99798.52;109937;1286;21989;-73
2023/11/01 02:28:03;;;;;;;19.80;12.30;;;;;;;22.55;75.38;99796.58;109895;1286;21978;-59
2023/11/01 02:30:29;;;;;;;20.00;12.80;;;;;;;22.55;75.56;99796.23;109914;1282;21936;-72
2023/11/01 02:32:55;;;;;;;22.70;13.00;;;;;;;22.56;75.71;99800.27;109912;1276;22019;-73
2023/11/01 02:35:20;;;;;;;22.20;12.40;;;;;;;22.58;75.69;99815.13;109911;1283;21955;-72
2023/11/01 02:37:49;;;;;;;18.60;12.50;;;;;;;22.61;75.96;99832.27;109886;1286;21940;-59
2023/11/01 02:40:15;;;;;;;22.20;13.80;;;;;;;22.65;76.30;99840.91;109908;1286;22004;-72
2023/11/01 02:42:42;;;;;;;21.40;13.00;;;;;;;22.69;76.30;99829.41;109935;1281;22502;-73
2023/11/01 02:45:11;;;;;;;25.10;13.50;;;;;;;22.71;76.21;99823.69;109916;1281;21945;-61
2023/11/01 02:47:40;;;;;;;24.90;13.40;;;;;;;22.73;76.44;99829.98;109922;1286;22267;-72
2023/11/01 02:50:09;;;;;;;22.10;12.70;;;;;;;22.76;76.32;99839.27;109915;1281;21951;-73
2023/11/01 02:52:35;;;;;;;24.50;14.70;;;;;;;22.78;76.72;99837.52;109942;1280;21944;-60
2023/11/01 02:55:09;;;;;;;21.80;13.20;;;;;;;22.79;76.81;99836.72;109926;1276;22005;-73
2023/11/01 02:57:34;;;;;;;27.10;14.40;;;;;;;22.80;76.45;99835.36;109925;1283;22021;-71
2023/11/01 03:00:00;;;;;;;25.80;13.60;;;;;;;22.81;76.29;99834.59;109924;1283;21922;-60
2023/11/01 03:02:26;;;;;;;25.20;14.40;;;;;;;22.84;76.79;99827.05;109914;1286;22005;-60
2023/11/01 03:04:51;;;;;;;22.30;13.00;;;;;;;22.85;76.83;99829.45;109932;1276;21951;-72
2023/11/01 03:07:17;;;;;;;29.80;14.40;;;;;;;22.87;76.94;99834.00;109968;1280;22025;-72
2023/11/01 03:09:43;;;;;;;26.60;15.00;;;;;;;22.88;76.82;99835.69;109924;1280;22060;-59
2023/11/01 03:12:09;;;;;;;27.00;16.10;;;;;;;22.89;77.03;99831.73;109940;1277;21959;-72
2023/11/01 03:14:38;;;;;;;31.50;17.00;;;;;;;22.89;77.32;99825.08;109955;1285;21969;-60
2023/11/01 03:17:07;;;;;;;27.00;16.30;;;;;;;22.91;77.42;99821.77;109940;1280;21933;-60
2023/11/01 03:19:33;;;;;;;29.60;15.60;;;;;;;22.92;77.52;99825.28;109920;1280;22048;-59
2023/11/01 03:21:58;;;;;;;24.10;17.10;;;;;;;22.93;77.28;99824.83;109938;1276;21918;-71
2023/11/01 03:24:24;;;;;;;26.60;16.40;;;;;;;22.94;77.46;99820.61;109945;1286;21948;-60
2023/11/01 03:26:50;;;;;;;26.10;16.70;;;;;;;22.95;77.52;99818.91;109883;1287;21939;-61
2023/11/01 03:29:16;;;;;;;22.80;16.00;;;;;;;22.96;77.46;99814.20;109919;1283;21910;-61
2023/11/01 03:31:43;;;;;;;31.30;17.70;;;;;;;22.98;77.54;99814.95;109908;1281;22044;-72
2023/11/01 03:34:09;;;;;;;25.20;18.00;;;;;;;23.00;77.58;99813.05;109913;1276;21909;-60
2023/11/01 03:36:35;;;;;;;27.00;17.50;;;;;;;23.01;77.41;99809.55;109902;1282;21915;-71
2023/11/01 03:39:00;;;;;;;28.30;17.30;;;;;;;23.02;77.75;99804.11;109904;1286;21994;-72
2023/11/01 03:41:26;;;;;;;27.30;17.50;;;;;;;23.02;77.71;99797.28;109873;1280;21962;-72
2023/11/01 03:43:51;;;;;;;28.80;17.40;;;;;;;23.02;77.58;99793.70;109910;1279;21865;-72
2023/11/01 03:46:17;;;;;;;28.40;17.10;;;;;;;23.00;77.27;99795.27;109913;1277;21932;-72
2023/11/01 03:48:43;;;;;;;24.90;17.70;;;;;;;22.96;77.74;99791.81;109892;1276;21920;-72
2023/11/01 03:51:08;;;;;;;27.50;18.40;;;;;;;22.94;77.72;99786.65;109904;1286;22147;-60
2023/11/01 03:53:34;;;;;;;31.90;20.50;;;;;;;22.93;77.77;99789.39;109919;1283;21951;-59
2023/11/01 03:55:59;;;;;;;30.80;17.60;;;;;;;22.93;77.77;99794.80;109948;1280;22407;-60
2023/11/01 03:58:25;;;;;;;30.30;18.60;;;;;;;22.93;77.66;99790.45;109920;1286;21979;-73
2023/11/01 04:00:51;;;;;;;24.00;17.90;;;;;;;22.94;77.80;99783.07;109938;1279;22275;-72
2023/11/01 04:03:16;;;;;;;31.00;20.00;;;;;;;22.92;77.88;99773.77;109912;1276;21950;-73
2023/11/01 04:05:42;;;;;;;26.80;18.90;;;;;;;22.89;77.80;99774.30;109945;1275;21859;-60
2023/11/01 04:08:08;;;;;;;32.50;20.10;;;;;;;22.87;77.76;99774.27;109950;1273;21981;-60
2023/11/01 04:10:33;;;;;;;29.60;19.60;;;;;;;22.86;77.81;99778.65;109956;1286;21935;-72
2023/11/01 04:12:59;;;;;;;27.10;19.30;;;;;;;22.85;77.75;99775.26;109968;1286;21895;-72
2023/11/01 04:15:25;;;;;;;37.10;21.40;;;;;;;22.86;77.86;99773.05;109960;1279;21928;-60
2023/11/01 04:17:51;;;;;;;28.80;20.30;;;;;;;22.87;77.75;99766.73;109957;1284;21995;-71
2023/11/01 04:20:17;;;;;;;25.40;18.40;;;;;;;22.88;77.64;99775.93;109989;1286;21984;-72
2023/11/01 04:22:43;;;;;;;30.60;20.00;;;;;;;22.90;77.73;99781.20;109934;1276;21942;-71
2023/11/01 04:25:10;;;;;;;30.50;20.10;;;;;;;22.91;77.69;99784.69;109952;1283;21916;-60
2023/11/01 04:27:39;;;;;;;32.60;20.80;;;;;;;22.94;77.67;99781.65;109966;1284;22932;-72
2023/11/01 04:30:09;;;;;;;34.80;21.10;;;;;;;22.95;77.68;99785.15;109921;1276;21931;-72
2023/11/01 04:32:36;;;;;;;31.20;20.20;;;;;;;22.96;77.70;99793.95;109948;1279;21972;-60
2023/11/01 04:35:09;;;;;;;25.60;18.80;;;;;;;23.00;77.56;99792.99;109967;1286;21961;-73
2023/11/01 04:37:37;;;;;;;33.80;20.40;;;;;;;23.03;77.62;99793.30;109914;1276;22008;-73
2023/11/01 04:40:08;;;;;;;31.90;20.50;;;;;;;23.06;77.59;99792.71;109940;1277;21925;-59
2023/11/01 04:42:34;;;;;;;28.60;19.50;;;;;;;23.08;77.41;99794.92;109965;1273;21918;-74
2023/11/01 04:45:00;;;;;;;25.00;19.40;;;;;;;23.10;77.37;99795.33;109953;1281;21927;-74
2023/11/01 04:47:25;;;;;;;31.50;19.80;;;;;;;23.11;77.32;99797.70;109953;1286;21991;-73
2023/11/01 04:49:51;;;;;;;34.50;21.90;;;;;;;23.13;77.14;99799.77;109949;1276;21863;-72
2023/11/01 04:52:16;;;;;;;33.10;20.60;;;;;;;23.12;77.24;99800.88;109955;1286;21992;-59
2023/11/01 04:54:42;;;;;;;32.10;20.60;;;;;;;23.12;77.03;99802.31;109950;1273;21942;-72
2023/11/01 04:57:07;;;;;;;37.80;21.90;;;;;;;23.12;76.94;99804.80;109948;1280;21829;-60
2023/11/01 04:59:33;;;;;;;34.40;22.60;;;;;;;23.12;77.04;99807.00;109956;1277;21951;-59
2023/11/01 05:01:59;;;;;;;30.40;20.60;;;;;;;23.11;77.06;99808.45;109932;1279;21916;-61
2023/11/01 05:04:24;;;;;;;35.40;19.60;;;;;;;23.12;76.73;99811.11;109934;1279;21988;-60
2023/11/01 05:06:53;;;;;;;36.70;21.40;;;;;;;23.13;76.72;99809.42;109951;1286;21926;-72
2023/11/01 05:09:19;;;;;;;30.90;20.80;;;;;;;23.13;76.48;99809.92;109940;1284;22498;-72
2023/11/01 05:11:46;;;;;;;30.60;20.40;;;;;;;23.14;76.60;99809.87;109943;1284;21939;-60
2023/11/01 05:14:11;;;;;;;32.20;20.80;;;;;;;23.15;76.46;99812.63;109912;1277;21919;-59
2023/11/01 05:16:37;;;;;;;27.30;21.20;;;;;;;23.16;76.44;99816.49;109920;1285;21912;-72
2023/11/01 05:19:08;;;;;;;33.10;21.10;;;;;;;23.17;76.47;99816.73;109904;1273;21954;-73
2023/11/01 05:21:35;;;;;;;30.60;20.50;;;;;;;23.18;76.30;99814.34;109904;1284;21921;-72
2023/11/01 05:24:01;;;;;;;34.70;21.90;;;;;;;23.19;76.31;99816.66;109873;1287;21936;-72
2023/11/01 05:26:29;;;;;;;31.50;20.70;;;;;;;23.19;76.31;99814.84;109895;1276;21930;-60
2023/11/01 05:28:58;;;;;;;28.30;20.10;;;;;;;23.20;76.22;99811.25;109907;1279;22005;-60
2023/11/01 05:31:24;;;;;;;31.50;21.10;;;;;;;23.20;76.24;99812.27;109887;1279;21847;-73
2023/11/01 05:33:50;;;;;;;34.80;21.50;;;;;;;23.21;76.42;99809.71;109916;1285;21931;-73
2023/11/01 05:36:16;;;;;;;33.50;21.30;;;;;;;23.21;76.47;99803.42;109912;1280;21960;-60
2023/11/01 05:38:42;;;;;;;32.10;20.80;;;;;;;23.23;76.54;99797.62;109898;1286;21949;-60
2023/11/01 05:41:11;;;;;;;41.20;22.30;;;;;;;23.23;76.35;99796.85;109874;1280;21962;-72
2023/11/01 05:43:37;;;;;;;28.20;19.80;;;;;;;23.24;76.42;99793.41;109920;1287;22218;-72
2023/11/01 05:46:04;;;;;;;32.50;20.80;;;;;;;23.25;76.69;99792.94;109905;1285;21929;-60
2023/11/01 05:48:31;;;;;;;30.60;21.80;;;;;;;23.28;76.63;99791.88;109917;1281;21949;-72
2023/11/01 05:50:59;;;;;;;31.10;21.10;;;;;;;23.30;76.57;99792.98;109914;1279;22277;-60
2023/11/01 05:53:24;;;;;;;29.20;21.40;;;;;;;23.32;76.53;99795.48;109928;1286;21967;-73
2023/11/01 05:55:50;;;;;;;33.40;22.10;;;;;;;23.35;76.65;99795.64;109961;1279;21924;-60
2023/11/01 05:58:16;;;;;;;29.10;21.00;;;;;;;23.39;76.53;99794.66;109970;1273;21924;-72
2023/11/01 06:00:42;;;;;;;34.20;22.10;;;;;;;23.41;76.50;99798.08;109921;1286;21931;-60
2023/11/01 06:03:08;;;;;;;29.50;21.90;;;;;;;23.42;76.46;99811.23;109959;1286;21945;-74
2023/11/01 06:05:35;;;;;;;33.90;21.20;;;;;;;23.43;76.56;99813.10;109953;1284;22347;-72
2023/11/01 06:08:02;;;;;;;31.90;22.90;;;;;;;23.46;76.54;99802.52;109945;1284;21907;-60
2023/11/01 06:10:27;;;;;;;29.30;21.50;;;;;;;23.48;76.43;99794.33;109954;1286;22031;-59
2023/11/01 06:12:53;;;;;;;34.20;22.60;;;;;;;23.50;76.40;99793.59;109928;1286;21923;-60
2023/11/01 06:15:18;;;;;;;36.10;24.30;;;;;;;23.51;76.66;99807.87;109905;1287;21936;-71
2023/11/01 06:17:44;;;;;;;33.20;23.40;;;;;;;23.51;76.91;99812.19;109887;1283;21940;-72
2023/11/01 06:20:10;;;;;;;35.20;22.90;;;;;;;23.51;76.77;99800.88;109895;1279;22048;-71
2023/11/01 06:22:36;;;;;;;39.00;22.80;;;;;;;23.52;77.00;99798.11;109875;1287;22156;-60
2023/11/01 06:25:01;;;;;;;30.40;22.30;;;;;;;23.55;76.80;99792.19;109907;1283;22007;-59
2023/11/01 06:27:28;;;;;;;37.00;23.10;;;;;;;23.58;76.98;99795.52;109918;1276;21856;-61
2023/11/01 06:29:54;;;;;;;36.30;23.20;;;;;;;23.59;77.06;99796.86;109918;1279;22002;-71
2023/11/01 06:32:19;;;;;;;36.90;24.10;;;;;;;23.59;77.03;99795.61;109897;1283;21895;-70
2023/11/01 06:34:45;;;;;;;40.80;24.20;;;;;;;23.58;76.68;99796.43;109879;1279;21960;-72
2023/11/01 06:37:10;;;;;;;34.40;22.60;;;;;;;23.57;76.68;99801.48;109857;1287;21989;-60
2023/11/01 06:39:36;;;;;;;34.10;22.90;;;;;;;23.58;76.79;99801.93;109896;1287;21991;-60
2023/11/01 06:42:02;;;;;;;36.60;23.40;;;;;;;23.60;76.83;99801.06;109907;1287;21934;-71
2023/11/01 06:44:28;;;;;;;29.10;22.50;;;;;;;23.62;76.75;99801.98;109885;1282;21960;-60
2023/11/01 06:46:54;;;;;;;36.30;23.20;;;;;;;23.65;76.90;99798.96;109920;1279;21895;-71
2023/11/01 06:49:20;;;;;;;36.90;25.40;;;;;;;23.67;76.82;99801.77;109907;1283;21995;-72
2023/11/01 06:51:45;;;;;;;31.20;23.80;;;;;;;23.69;76.95;99802.88;109880;1286;21920;-60
2023/11/01 06:54:11;;;;;;;34.30;22.50;;;;;;;23.71;76.99;99792.90;109940;1276;21980;-60
2023/11/01 06:56:43;;;;;;;38.10;23.80;;;;;;;23.74;76.96;99788.73;109970;1282;21906;-60
2023/11/01 06:59:08;;;;;;;35.20;23.20;;;;;;;23.78;76.91;99783.64;109963;1276;21997;-60
2023/11/01 07:01:35;;;;;;;38.30;23.00;;;;;;;23.82;76.89;99776.67;109942;1279;21929;-72
2023/11/01 07:04:01;;;;;;;38.10;23.00;;;;;;;23.86;76.66;99774.23;109954;1279;21937;-60
2023/11/01 07:06:27;;;;;;;36.40;21.90;;;;;;;23.89;76.49;99778.09;109950;1286;21946;-72
2023/11/01 07:08:52;;;;;;;33.10;22.80;;;;;;;23.93;76.61;99780.46;109949;1276;21968;-76
2023/11/01 07:11:19;;;;;;;40.80;23.50;;;;;;;23.96;76.44;99784.71;109935;1286;21921;-72
2023/11/01 07:13:45;;;;;;;34.40;22.50;;;;;;;23.99;76.15;99785.80;109948;1286;21933;-60
2023/11/01 07:16:10;;;;;;;35.60;23.10;;;;;;;24.00;75.78;99784.27;109966;1286;21933;-60
2023/11/01 07:18:40;;;;;;;36.20;23.30;;;;;;;24.00;75.40;99784.84;109957;1273;21918;-60
2023/11/01 07:21:08;;;;;;;36.20;23.50;;;;;;;23.99;75.29;99783.96;109961;1286;21854;-72
2023/11/01 07:23:34;;;;;;;40.30;23.30;;;;;;;23.97;75.04;99777.50;109853;1278;21970;-71
2023/11/01 07:26:00;;;;;;;30.10;21.30;;;;;;;24.00;75.31;99779.11;109956;1279;21947;-71
2023/11/01 07:28:25;;;;;;;39.10;23.40;;;;;;;24.04;75.51;99778.55;109940;1286;21959;-60
2023/11/01 07:30:51;;;;;;;33.20;21.10;;;;;;;24.08;75.14;99779.89;109947;1286;22008;-60
2023/11/01 07:33:17;;;;;;;33.30;21.30;;;;;;;24.09;75.06;99772.98;109959;1284;22005;-61
2023/11/01 07:35:42;;;;;;;37.10;20.90;;;;;;;24.14;75.12;99764.70;109957;1286;22004;-72
2023/11/01 07:38:08;;;;;;;32.10;21.80;;;;;;;24.20;74.85;99759.27;109939;1276;21947;-71
2023/11/01 07:40:33;;;;;;;27.70;20.40;;;;;;;24.23;74.42;99755.27;109939;1276;22399;-60
2023/11/01 07:42:59;;;;;;;30.70;19.90;;;;;;;24.25;73.96;99751.33;109983;1279;21911;-60
2023/11/01 07:45:25;;;;;;;30.70;20.30;;;;;;;24.25;73.43;99758.29;109944;1286;21993;-60
2023/11/01 07:47:51;;;;;;;29.80;21.00;;;;;;;24.27;73.32;99775.04;109971;1276;21948;-72
2023/11/01 07:50:16;;;;;;;27.60;18.90;;;;;;;24.27;73.23;99790.45;109952;1286;21897;-72
2023/11/01 07:52:43;;;;;;;33.50;19.80;;;;;;;24.27;73.17;99804.23;109956;1286;21923;-61
2023/11/01 07:55:09;;;;;;;28.90;18.30;;;;;;;24.29;73.04;99809.77;109942;1286;22464;-72
2023/11/01 07:57:35;;;;;;;28.80;19.20;;;;;;;24.33;72.87;99812.71;109969;1279;21893;-72
2023/11/01 08:00:03;;;;;;;27.70;18.70;;;;;;;24.30;72.30;99805.45;109955;1276;22468;-72
2023/11/01 08:02:28;;;;;;;30.30;19.50;;;;;;;24.26;72.07;99801.80;109923;1285;21938;-60
2023/11/01 08:04:55;;;;;;;26.20;18.30;;;;;;;24.27;72.16;99796.70;109958;1286;21943;-60
2023/11/01 08:07:20;;;;;;;31.70;19.50;;;;;;;24.30;72.04;99788.38;109962;1276;22005;-72
2023/11/01 08:09:47;;;;;;;30.60;21.00;;;;;;;24.33;71.73;99798.54;109896;1286;21943;-60
2023/11/01 08:12:13;;;;;;;35.20;20.00;;;;;;;24.32;71.32;99814.42;109951;1282;21955;-72
2023/11/01 08:14:39;;;;;;;39.60;22.90;;;;;;;24.28;71.05;99826.74;109867;1286;21953;-73
2023/11/01 08:17:04;;;;;;;39.90;25.40;;;;;;;24.22;70.85;99842.30;109961;1286;22238;-72
2023/11/01 08:19:30;;;;;;;34.70;21.80;;;;;;;24.15;71.01;99855.48;109955;1286;21946;-72
2023/11/01 08:21:55;;;;;;;29.10;19.40;;;;;;;24.07;70.84;99860.81;109970;1286;21915;-66
2023/11/01 08:24:21;;;;;;;30.20;19.30;;;;;;;23.98;70.75;99872.06;109919;1276;21944;-72
2023/11/01 08:26:46;;;;;;;45.00;25.30;;;;;;;23.88;70.44;99877.23;109947;1285;21972;-72
2023/11/01 08:29:12;;;;;;;46.20;27.70;;;;;;;23.78;70.52;99880.86;109950;1286;21864;-59
2023/11/01 08:31:38;;;;;;;29.00;19.10;;;;;;;23.69;70.65;99881.56;109973;1285;22417;-60
2023/11/01 08:34:03;;;;;;;39.40;21.20;;;;;;;23.57;70.93;99880.84;109962;1279;21947;-65
2023/11/01 08:36:29;;;;;;;30.90;18.20;;;;;;;23.45;71.07;99879.73;109957;1273;21948;-63
2023/11/01 08:38:54;;;;;;;31.30;18.00;;;;;;;23.32;71.23;99882.70;109954;1286;21934;-64
2023/11/01 08:41:20;;;;;;;30.50;17.90;;;;;;;23.17;71.15;99887.29;109950;1286;21958;-64
2023/11/01 08:43:45;;;;;;;30.00;17.60;;;;;;;23.01;71.13;99891.84;109947;1286;21920;-67
2023/11/01 08:46:16;;;;;;;24.50;14.70;;;;;;;22.86;71.54;99878.96;109943;1286;21993;-63
2023/11/01 08:48:42;;;;;;;23.20;14.00;;;;;;;22.77;71.99;99871.77;109980;1286;22384;-67
2023/11/01 08:51:10;;;;;;;22.40;13.20;;;;;;;22.65;72.17;99862.91;109962;1286;21931;-63
2023/11/01 08:53:38;;;;;;;19.20;11.50;;;;;;;22.54;72.34;99862.47;109947;1286;21941;-62
2023/11/01 08:56:05;;;;;;;18.60;11.30;;;;;;;22.44;72.23;99868.88;109937;1286;21861;-62
2023/11/01 08:58:31;;;;;;;20.20;11.50;;;;;;;22.37;72.43;99868.42;109975;1278;21957;-65
2023/11/01 09:00:59;;;;;;;14.60;9.90;;;;;;;22.33;72.39;99869.29;109971;1286;21897;-66
2023/11/01 09:03:25;;;;;;;17.20;8.40;;;;;;;22.25;72.03;99873.19;109971;1286;21909;-66
2023/11/01 09:05:52;;;;;;;16.70;7.70;;;;;;;22.19;72.07;99875.54;109963;1286;21944;-62
2023/11/01 09:08:17;;;;;;;11.70;7.90;;;;;;;22.16;72.11;99881.48;109952;1286;21947;-65
2023/11/01 09:10:44;;;;;;;14.00;9.40;;;;;;;22.12;72.17;99881.77;109934;1286;22412;-62
2023/11/01 09:13:10;;;;;;;15.20;11.00;;;;;;;22.09;72.53;99878.20;109962;1286;21885;-65
2023/11/01 09:15:36;;;;;;;17.60;11.00;;;;;;;22.02;72.66;99873.83;109953;1286;21938;-62
2023/11/01 09:18:02;;;;;;;14.90;9.60;;;;;;;21.95;72.44;99879.32;109945;1286;21912;-61
2023/11/01 09:20:28;;;;;;;14.60;10.10;;;;;;;21.87;72.54;99889.90;109961;1286;21950;-67
2023/11/01 09:22:55;;;;;;;17.30;9.90;;;;;;;21.76;72.63;99903.07;109966;1276;21940;-67
2023/11/01 09:25:21;;;;;;;13.70;10.90;;;;;;;21.64;72.71;99919.77;109957;1286;22004;-61
2023/11/01 09:27:47;;;;;;;18.00;11.20;;;;;;;21.48;72.75;99929.01;109956;1286;21832;-65
2023/11/01 09:30:12;;;;;;;15.40;9.30;;;;;;;21.31;72.29;99941.12;109945;1286;22002;-65
2023/11/01 09:32:38;;;;;;;17.80;8.90;;;;;;;21.17;71.82;99943.98;109958;1286;21942;-65
2023/11/01 09:35:06;;;;;;;11.50;7.40;;;;;;;21.00;71.62;99940.95;109964;1286;21948;-61
2023/11/01 09:37:35;;;;;;;11.10;7.20;;;;;;;20.87;71.85;99940.71;109964;1279;22248;-68
2023/11/01 09:40:03;;;;;;;10.60;7.40;;;;;;;20.76;72.25;99930.09;109978;1286;22019;-68
2023/11/01 09:42:29;;;;;;;11.90;6.90;;;;;;;20.64;72.56;99926.41;109971;1286;22392;-61
2023/11/01 09:44:57;;;;;;;14.50;7.30;;;;;;;20.49;72.65;99921.56;109974;1286;21966;-60
2023/11/01 09:47:26;;;;;;;11.70;7.00;;;;;;;20.39;73.19;99916.48;109971;1286;21944;-61
2023/11/01 09:49:53;;;;;;;10.70;6.70;;;;;;;20.29;73.59;99915.13;109959;1286;21974;-61
2023/11/01 09:52:19;;;;;;;12.00;7.40;;;;;;;20.22;73.87;99922.52;109976;1286;21947;-61
2023/11/01 09:54:44;;;;;;;12.90;6.30;;;;;;;20.18;74.00;99912.95;109920;1286;22332;-61
2023/11/01 09:57:13;;;;;;;10.40;6.50;;;;;;;20.13;74.78;99898.81;109956;1286;21950;-68
2023/11/01 09:59:38;;;;;;;10.70;7.00;;;;;;;20.08;75.22;99885.02;109847;1286;21869;-71
2023/11/01 10:02:04;;;;;;;11.90;7.10;;;;;;;20.04;75.59;99877.58;109956;1277;21990;-75
2023/11/01 10:04:30;;;;;;;13.20;7.30;;;;;;;20.01;76.08;99874.56;109964;1286;22021;-61
2023/11/01 10:06:55;;;;;;;13.80;7.60;;;;;;;20.00;76.25;99872.30;109911;1286;22040;-76
2023/11/01 10:09:21;;;;;;;14.80;6.80;;;;;;;20.03;76.38;99868.59;109952;1286;21946;-61
2023/11/01 10:11:47;;;;;;;11.50;5.70;;;;;;;20.06;76.18;99860.02;109957;1286;22004;-61
2023/11/01 10:14:30;;;;;;;8.70;4.40;;;;;;;20.09;75.91;99854.70;109958;1286;21917;-61
2023/11/01 10:16:56;;;;;;;7.90;4.00;;;;;;;20.09;75.61;99862.19;109946;1286;21937;-74
2023/11/01 10:19:24;;;;;;;7.40;3.80;;;;;;;20.06;75.58;99869.83;109957;1286;22740;-72
2023/11/01 10:21:52;;;;;;;6.80;3.10;;;;;;;20.07;75.79;99873.18;109965;1286;21939;-70
2023/11/01 10:24:26;;;;;;;5.80;3.50;;;;;;;20.06;75.86;99876.11;109959;1286;21935;-69
2023/11/01 10:26:55;;;;;;;5.30;3.20;;;;;;;20.08;75.72;99892.15;109916;1286;21846;-62
2023/11/01 10:29:26;;;;;;;5.00;3.00;;;;;;;20.13;75.93;99894.37;109967;1286;21995;-61
2023/11/01 10:31:58;;;;;;;4.90;2.90;;;;;;;20.18;75.96;99893.00;109960;1286;22414;-66
2023/11/01 10:34:35;;;;;;;6.20;2.60;;;;;;;20.21;75.97;99892.80;109953;1286;21968;-64
2023/11/01 10:37:02;;;;;;;4.50;2.50;;;;;;;20.23;76.27;99899.80;109955;1286;22378;-62
2023/11/01 10:39:28;;;;;;;6.90;2.00;;;;;;;20.28;76.18;99910.93;109830;1282;21966;-63
2023/11/01 10:41:57;;;;;;;4.80;1.90;;;;;;;20.33;76.17;99917.94;109940;1286;21909;-64
2023/11/01 10:44:23;;;;;;;6.70;2.10;;;;;;;20.39;75.95;99919.17;109960;1286;21933;-63
2023/11/01 10:46:49;;;;;;;4.20;1.40;;;;;;;20.44;75.62;99920.61;109968;1286;21908;-63
2023/11/01 10:49:15;;;;;;;4.40;1.60;;;;;;;20.46;74.78;99925.71;109960;1286;22464;-63
2023/11/01 10:51:41;;;;;;;3.30;1.30;;;;;;;20.45;74.36;99914.55;109953;1286;21862;-68
2023/11/01 10:54:08;;;;;;;2.50;1.40;;;;;;;20.45;74.40;99906.18;109903;1286;21929;-65
2023/11/01 10:56:34;;;;;;;2.70;1.10;;;;;;;20.51;74.48;99902.80;109946;1286;21908;-64
2023/11/01 10:59:32;;;;;;;2.60;1.00;;;;;;;20.54;73.85;99913.47;109947;1286;22397;-65
2023/11/01 11:02:18;;;;;;;3.50;0.80;;;;;;;20.52;73.55;99922.64;109941;1286;21959;-64
2023/11/01 11:04:47;;;;;;;5.80;1.00;;;;;;;20.52;73.66;99908.25;109951;1286;22001;-64
2023/11/01 11:07:37;;;;;;;5.00;1.10;;;;;;;20.54;73.81;99895.30;109953;1286;21946;-65
2023/11/01 11:10:21;;;;;;;2.10;0.80;;;;;;;20.58;74.12;99893.41;109948;1286;21934;-64